createdAt,value
2018-04-20T00:00:25.227Z,1007.88
2018-04-20T00:01:31.420Z,1007.92
2018-04-20T00:02:37.626Z,1007.91
2018-04-20T00:03:43.816Z,1007.88
2018-04-20T00:04:50.011Z,1007.90
2018-04-20T00:05:56.240Z,1007.91
2018-04-20T00:07:02.419Z,1007.88
2018-04-20T00:08:08.628Z,1007.90
2018-04-20T00:09:14.821Z,1007.91
2018-04-20T00:10:21.060Z,1007.91
2018-04-20T00:11:27.237Z,1007.89
2018-04-20T00:12:33.448Z,1007.89
2018-04-20T00:13:39.633Z,1007.90
2018-04-20T00:14:45.838Z,1007.86
2018-04-20T00:15:52.051Z,1007.88
2018-04-20T00:16:57.736Z,1007.83
2018-04-20T00:18:03.924Z,1007.83
2018-04-20T00:19:10.617Z,1007.87
2018-04-20T00:20:16.853Z,1007.84
2018-04-20T00:21:23.025Z,1007.81
2018-04-20T00:22:28.735Z,1007.75
2018-04-20T00:23:35.415Z,1007.78
2018-04-20T00:24:41.612Z,1007.81
2018-04-20T00:25:47.427Z,1007.82
2018-04-20T00:26:54.013Z,1007.77
2018-04-20T00:28:00.194Z,1007.81
2018-04-20T00:29:06.387Z,1007.79
2018-04-20T00:30:12.115Z,1007.79
2018-04-20T00:31:18.778Z,1007.83
2018-04-20T00:32:24.975Z,1007.79
2018-04-20T00:33:31.172Z,1007.83
2018-04-20T00:34:37.391Z,1007.79
2018-04-20T00:35:43.566Z,1007.78
2018-04-20T00:36:49.750Z,1007.79
2018-04-20T00:37:55.936Z,1007.80
2018-04-20T00:39:02.120Z,1007.82
2018-04-20T00:40:08.335Z,1007.80
2018-04-20T00:41:14.511Z,1007.83
2018-04-20T00:42:20.684Z,1007.74
2018-04-20T00:43:26.396Z,1007.75
2018-04-20T00:44:33.062Z,1007.75
2018-04-20T00:45:39.267Z,1007.78
2018-04-20T00:46:45.448Z,1007.77
2018-04-20T00:47:51.640Z,1007.74
2018-04-20T00:48:57.823Z,1007.70
2018-04-20T00:50:04.005Z,1007.68
2018-04-20T00:51:10.222Z,1007.66
2018-04-20T00:52:16.368Z,1007.62
2018-04-20T00:53:22.570Z,1007.65
2018-04-20T00:54:28.751Z,1007.64
2018-04-20T00:55:34.969Z,1007.61
2018-04-20T00:56:41.132Z,1007.63
2018-04-20T00:57:47.393Z,1007.64
2018-04-20T00:58:53.493Z,1007.65
2018-04-20T00:59:59.684Z,1007.63
2018-04-20T01:01:05.890Z,1007.65
2018-04-20T01:02:12.065Z,1007.63
2018-04-20T01:03:17.747Z,1007.61
2018-04-20T01:04:24.424Z,1007.68
2018-04-20T01:05:30.635Z,1007.56
2018-04-20T01:06:36.820Z,1007.60
2018-04-20T01:07:42.986Z,1007.59
2018-04-20T01:08:49.189Z,1007.61
2018-04-20T01:09:55.403Z,1007.56
2018-04-20T01:11:01.605Z,1007.57
2018-04-20T01:12:07.751Z,1007.53
2018-04-20T01:13:13.933Z,1007.52
2018-04-20T01:14:20.114Z,1007.57
2018-04-20T01:15:27.429Z,1007.53
2018-04-20T01:16:32.489Z,1007.55
2018-04-20T01:17:38.680Z,1007.57
2018-04-20T01:18:44.367Z,1007.51
2018-04-20T01:19:51.047Z,1007.57
2018-04-20T01:20:57.267Z,1007.58
2018-04-20T01:22:03.418Z,1007.60
2018-04-20T01:23:09.602Z,1007.59
2018-04-20T01:24:15.808Z,1007.63
2018-04-20T01:25:22.992Z,1007.63
2018-04-20T01:26:28.157Z,1007.57
2018-04-20T01:27:33.897Z,1007.59
2018-04-20T01:28:40.530Z,1007.61
2018-04-20T01:29:46.705Z,1007.62
2018-04-20T01:30:52.457Z,1007.61
2018-04-20T01:31:59.084Z,1007.61
2018-04-20T01:33:05.251Z,1007.59
2018-04-20T01:34:11.422Z,1007.62
2018-04-20T01:35:17.652Z,1007.63
2018-04-20T01:36:27.277Z,1007.61
2018-04-20T01:37:38.240Z,1007.60
2018-04-20T01:38:44.431Z,1007.62
2018-04-20T01:39:50.596Z,1007.62
2018-04-20T01:40:56.789Z,1007.66
2018-04-20T01:42:02.947Z,1007.64
2018-04-20T01:44:15.379Z,1007.62
2018-04-20T01:45:21.015Z,1007.63
2018-04-20T01:46:27.215Z,1007.62
2018-04-20T01:47:33.838Z,1007.65
2018-04-20T01:48:40.016Z,1007.62
2018-04-20T01:49:46.188Z,1007.59
2018-04-20T01:50:53.399Z,1007.63
2018-04-20T01:51:58.534Z,1007.60
2018-04-20T01:53:04.214Z,1007.57
2018-04-20T01:54:10.392Z,1007.56
2018-04-20T01:55:17.068Z,1007.57
2018-04-20T01:56:23.254Z,1007.57
2018-04-20T01:57:28.900Z,1007.58
2018-04-20T01:58:35.571Z,1007.58
2018-04-20T01:59:41.754Z,1007.55
2018-04-20T02:00:47.492Z,1007.56
2018-04-20T02:01:54.100Z,1007.57
2018-04-20T02:03:00.261Z,1007.55
2018-04-20T02:04:06.427Z,1007.54
2018-04-20T02:05:12.604Z,1007.55
2018-04-20T02:06:18.796Z,1007.55
2018-04-20T02:07:24.948Z,1007.55
2018-04-20T02:08:31.117Z,1007.54
2018-04-20T02:09:37.374Z,1007.52
2018-04-20T02:10:42.979Z,1007.56
2018-04-20T02:11:49.123Z,1007.51
2018-04-20T02:12:55.794Z,1007.50
2018-04-20T02:14:01.950Z,1007.53
2018-04-20T02:15:08.134Z,1007.49
2018-04-20T02:16:14.320Z,1007.55
2018-04-20T02:17:20.462Z,1007.53
2018-04-20T02:18:26.626Z,1007.55
2018-04-20T02:19:32.809Z,1007.51
2018-04-20T02:20:39.971Z,1007.51
2018-04-20T02:21:45.134Z,1007.55
2018-04-20T02:22:51.374Z,1007.51
2018-04-20T02:23:57.443Z,1007.51
2018-04-20T02:25:03.616Z,1007.50
2018-04-20T02:26:09.797Z,1007.50
2018-04-20T02:27:15.962Z,1007.48
2018-04-20T02:28:22.115Z,1007.47
2018-04-20T02:29:28.274Z,1007.49
2018-04-20T02:30:34.467Z,1007.46
2018-04-20T02:31:40.596Z,1007.46
2018-04-20T02:32:46.270Z,1007.47
2018-04-20T02:33:52.931Z,1007.41
2018-04-20T02:34:58.596Z,1007.43
2018-04-20T02:36:05.261Z,1007.39
2018-04-20T02:37:11.422Z,1007.39
2018-04-20T02:38:17.564Z,1007.40
2018-04-20T02:39:23.726Z,1007.41
2018-04-20T02:40:30.875Z,1007.40
2018-04-20T02:41:36.070Z,1007.40
2018-04-20T02:42:42.231Z,1007.40
2018-04-20T02:43:48.358Z,1007.41
2018-04-20T02:44:54.518Z,1007.45
2018-04-20T02:46:00.698Z,1007.41
2018-04-20T02:47:06.841Z,1007.41
2018-04-20T02:48:13.008Z,1007.39
2018-04-20T02:49:19.164Z,1007.39
2018-04-20T02:50:24.823Z,1007.37
2018-04-20T02:51:31.501Z,1007.35
2018-04-20T02:52:37.641Z,1007.35
2018-04-20T02:53:43.779Z,1007.37
2018-04-20T02:54:49.949Z,1007.33
2018-04-20T02:55:56.118Z,1007.36
2018-04-20T02:57:02.262Z,1007.35
2018-04-20T02:58:08.443Z,1007.32
2018-04-20T02:59:14.585Z,1007.37
2018-04-20T03:00:20.724Z,1007.34
2018-04-20T03:01:26.898Z,1007.37
2018-04-20T03:02:33.039Z,1007.34
2018-04-20T03:03:39.196Z,1007.30
2018-04-20T03:04:45.375Z,1007.28
2018-04-20T03:05:51.528Z,1007.29
2018-04-20T03:06:57.661Z,1007.34
2018-04-20T03:08:03.821Z,1007.29
2018-04-20T03:09:09.489Z,1007.32
2018-04-20T03:10:16.113Z,1007.29
2018-04-20T03:11:22.293Z,1007.29
2018-04-20T03:12:28.421Z,1007.26
2018-04-20T03:13:34.571Z,1007.37
2018-04-20T03:14:40.723Z,1007.29
2018-04-20T03:15:46.905Z,1007.29
2018-04-20T03:16:53.035Z,1007.26
2018-04-20T03:17:59.183Z,1007.28
2018-04-20T03:19:05.377Z,1007.25
2018-04-20T03:20:11.493Z,1007.20
2018-04-20T03:21:17.669Z,1007.24
2018-04-20T03:22:23.800Z,1007.21
2018-04-20T03:23:29.956Z,1007.19
2018-04-20T03:24:36.125Z,1007.19
2018-04-20T03:25:42.298Z,1007.25
2018-04-20T03:26:48.452Z,1007.25
2018-04-20T03:27:55.033Z,1007.16
2018-04-20T03:29:00.229Z,1007.23
2018-04-20T03:30:06.886Z,1007.25
2018-04-20T03:31:13.067Z,1007.20
2018-04-20T03:32:19.188Z,1007.22
2018-04-20T03:33:25.386Z,1007.22
2018-04-20T03:34:31.488Z,1007.22
2018-04-20T03:35:37.144Z,1007.23
2018-04-20T03:36:44.800Z,1007.17
2018-04-20T03:37:49.943Z,1007.22
2018-04-20T03:38:56.074Z,1007.23
2018-04-20T03:40:02.229Z,1007.22
2018-04-20T03:41:08.400Z,1007.21
2018-04-20T03:42:14.521Z,1007.25
2018-04-20T03:43:20.185Z,1007.24
2018-04-20T03:44:26.817Z,1007.21
2018-04-20T03:45:32.969Z,1007.23
2018-04-20T03:46:39.133Z,1007.22
2018-04-20T03:47:45.267Z,1007.21
2018-04-20T03:48:50.908Z,1007.21
2018-04-20T03:49:57.557Z,1007.20
2018-04-20T03:51:03.721Z,1007.21
2018-04-20T03:52:09.854Z,1007.18
2018-04-20T03:53:15.498Z,1007.22
2018-04-20T03:54:22.159Z,1007.23
2018-04-20T03:55:28.305Z,1007.24
2018-04-20T03:56:34.471Z,1007.24
2018-04-20T03:57:40.592Z,1007.24
2018-04-20T03:58:46.731Z,1007.28
2018-04-20T03:59:52.396Z,1007.20
2018-04-20T04:00:59.052Z,1007.22
2018-04-20T04:02:05.170Z,1007.18
2018-04-20T04:03:11.385Z,1007.20
2018-04-20T04:04:17.444Z,1007.20
2018-04-20T04:05:23.584Z,1007.24
2018-04-20T04:06:29.747Z,1007.21
2018-04-20T04:07:35.373Z,1007.21
2018-04-20T04:08:42.008Z,1007.21
2018-04-20T04:09:48.161Z,1007.24
2018-04-20T04:10:54.342Z,1007.21
2018-04-20T04:12:00.484Z,1007.25
2018-04-20T04:13:06.578Z,1007.22
2018-04-20T04:14:12.725Z,1007.22
2018-04-20T04:15:18.875Z,1007.27
2018-04-20T04:16:25.025Z,1007.25
2018-04-20T04:17:31.143Z,1007.28
2018-04-20T04:18:37.386Z,1007.28
2018-04-20T04:19:43.433Z,1007.26
2018-04-20T04:20:49.604Z,1007.27
2018-04-20T04:21:55.747Z,1007.26
2018-04-20T04:23:01.865Z,1007.27
2018-04-20T04:24:07.991Z,1007.29
2018-04-20T04:25:14.140Z,1007.33
2018-04-20T04:26:20.321Z,1007.30
2018-04-20T04:27:26.418Z,1007.33
2018-04-20T04:28:32.569Z,1007.34
2018-04-20T04:29:38.707Z,1007.33
2018-04-20T04:30:44.849Z,1007.31
2018-04-20T04:31:51.007Z,1007.29
2018-04-20T04:32:57.130Z,1007.31
2018-04-20T04:34:03.381Z,1007.28
2018-04-20T04:35:09.596Z,1007.29
2018-04-20T04:36:15.574Z,1007.33
2018-04-20T04:37:21.736Z,1007.36
2018-04-20T04:38:27.846Z,1007.38
2018-04-20T04:39:33.997Z,1007.36
2018-04-20T04:40:40.131Z,1007.39
2018-04-20T04:41:45.798Z,1007.42
2018-04-20T04:42:52.411Z,1007.39
2018-04-20T04:43:58.563Z,1007.40
2018-04-20T04:45:04.697Z,1007.43
2018-04-20T04:46:10.842Z,1007.42
2018-04-20T04:47:17.018Z,1007.43
2018-04-20T04:48:23.142Z,1007.47
2018-04-20T04:49:29.381Z,1007.48
2018-04-20T04:50:35.448Z,1007.47
2018-04-20T04:51:41.609Z,1007.46
2018-04-20T04:52:47.717Z,1007.48
2018-04-20T04:53:53.862Z,1007.44
2018-04-20T04:55:00.028Z,1007.45
2018-04-20T04:56:06.199Z,1007.46
2018-04-20T04:57:12.358Z,1007.45
2018-04-20T04:58:17.982Z,1007.42
2018-04-20T04:59:24.627Z,1007.42
2018-04-20T05:00:30.780Z,1007.43
2018-04-20T05:01:36.956Z,1007.42
2018-04-20T05:02:43.112Z,1007.46
2018-04-20T05:03:49.242Z,1007.45
2018-04-20T05:04:56.459Z,1007.39
2018-04-20T05:06:01.623Z,1007.43
2018-04-20T05:07:08.790Z,1007.37
2018-04-20T05:08:13.865Z,1007.43
2018-04-20T05:09:20.017Z,1007.40
2018-04-20T05:10:26.180Z,1007.41
2018-04-20T05:11:32.339Z,1007.40
2018-04-20T05:12:38.042Z,1007.41
2018-04-20T05:13:44.692Z,1007.40
2018-04-20T05:14:50.836Z,1007.41
2018-04-20T05:15:57.001Z,1007.43
2018-04-20T05:17:03.183Z,1007.40
2018-04-20T05:18:09.383Z,1007.42
2018-04-20T05:19:15.485Z,1007.43
2018-04-20T05:20:21.659Z,1007.46
2018-04-20T05:21:27.839Z,1007.40
2018-04-20T05:22:34.023Z,1007.43
2018-04-20T05:23:40.169Z,1007.43
2018-04-20T05:24:46.332Z,1007.46
2018-04-20T05:25:52.501Z,1007.47
2018-04-20T05:26:58.706Z,1007.44
2018-04-20T05:28:04.852Z,1007.50
2018-04-20T05:29:11.035Z,1007.46
2018-04-20T05:30:17.200Z,1007.47
2018-04-20T05:31:23.379Z,1007.47
2018-04-20T05:32:29.091Z,1007.45
2018-04-20T05:33:35.726Z,1007.50
2018-04-20T05:34:41.411Z,1007.47
2018-04-20T05:35:48.076Z,1007.48
2018-04-20T05:36:54.311Z,1007.47
2018-04-20T05:38:00.452Z,1007.44
2018-04-20T05:39:06.623Z,1007.44
2018-04-20T05:40:12.832Z,1007.42
2018-04-20T05:41:18.998Z,1007.42
2018-04-20T05:42:25.195Z,1007.42
2018-04-20T05:43:31.380Z,1007.43
2018-04-20T05:44:37.881Z,1007.48
2018-04-20T05:45:43.741Z,1007.40
2018-04-20T05:46:49.972Z,1007.45
2018-04-20T05:47:56.128Z,1007.41
2018-04-20T05:49:02.315Z,1007.38
2018-04-20T05:50:08.528Z,1007.40
2018-04-20T05:51:14.736Z,1007.38
2018-04-20T05:52:20.940Z,1007.44
2018-04-20T05:53:27.110Z,1007.41
2018-04-20T05:54:34.318Z,1007.39
2018-04-20T05:55:39.518Z,1007.43
2018-04-20T05:56:46.727Z,1007.44
2018-04-20T05:57:51.924Z,1007.42
2018-04-20T05:58:58.119Z,1007.41
2018-04-20T06:00:04.331Z,1007.43
2018-04-20T06:01:10.577Z,1007.42
2018-04-20T06:02:16.768Z,1007.43
2018-04-20T06:03:22.965Z,1007.41
2018-04-20T06:04:29.177Z,1007.45
2018-04-20T06:05:35.395Z,1007.44
2018-04-20T06:06:41.612Z,1007.44
2018-04-20T06:07:47.834Z,1007.41
2018-04-20T06:08:54.025Z,1007.39
2018-04-20T06:10:00.248Z,1007.36
2018-04-20T06:11:06.467Z,1007.37
2018-04-20T06:12:12.713Z,1007.33
2018-04-20T06:13:18.933Z,1007.35
2018-04-20T06:14:25.151Z,1007.34
2018-04-20T06:15:31.384Z,1007.35
2018-04-20T06:16:37.632Z,1007.38
2018-04-20T06:17:43.888Z,1007.35
2018-04-20T06:18:50.061Z,1007.37
2018-04-20T06:19:56.284Z,1007.36
2018-04-20T06:21:02.515Z,1007.39
2018-04-20T06:22:08.801Z,1007.42
2018-04-20T06:23:14.998Z,1007.37
2018-04-20T06:24:21.232Z,1007.39
2018-04-20T06:25:27.460Z,1007.37
2018-04-20T06:26:33.705Z,1007.35
2018-04-20T06:27:39.957Z,1007.33
2018-04-20T06:28:46.179Z,1007.35
2018-04-20T06:29:52.423Z,1007.41
2018-04-20T06:30:58.683Z,1007.40
2018-04-20T06:32:04.446Z,1007.35
2018-04-20T06:33:12.182Z,1007.35
2018-04-20T06:34:17.416Z,1007.31
2018-04-20T06:35:23.171Z,1007.29
2018-04-20T06:36:29.927Z,1007.30
2018-04-20T06:37:36.189Z,1007.31
2018-04-20T06:38:42.423Z,1007.33
2018-04-20T06:39:48.192Z,1007.30
2018-04-20T06:40:54.938Z,1007.31
2018-04-20T06:42:01.192Z,1007.29
2018-04-20T06:43:07.477Z,1007.31
2018-04-20T06:44:13.727Z,1007.34
2018-04-20T06:45:19.492Z,1007.32
2018-04-20T06:46:26.232Z,1007.32
2018-04-20T06:47:32.518Z,1007.36
2018-04-20T06:48:38.764Z,1007.30
2018-04-20T06:50:51.379Z,1007.32
2018-04-20T06:51:57.576Z,1007.30
2018-04-20T06:53:03.866Z,1007.23
2018-04-20T06:54:10.122Z,1007.28
2018-04-20T06:55:16.393Z,1007.26
2018-04-20T06:56:22.684Z,1007.25
2018-04-20T06:57:28.983Z,1007.21
2018-04-20T06:58:35.234Z,1007.20
2018-04-20T06:59:41.519Z,1007.22
2018-04-20T07:00:47.815Z,1007.21
2018-04-20T07:01:53.604Z,1007.23
2018-04-20T07:02:59.919Z,1007.25
2018-04-20T07:04:06.705Z,1007.25
2018-04-20T07:05:13.061Z,1007.26
2018-04-20T07:06:19.383Z,1007.24
2018-04-20T07:07:25.597Z,1007.22
2018-04-20T07:08:31.899Z,1007.23
2018-04-20T07:09:38.174Z,1007.18
2018-04-20T07:10:44.494Z,1007.16
2018-04-20T07:11:50.302Z,1007.17
2018-04-20T07:12:57.138Z,1007.11
2018-04-20T07:14:03.427Z,1007.12
2018-04-20T07:15:09.752Z,1007.12
2018-04-20T07:16:16.071Z,1007.08
2018-04-20T07:17:21.913Z,1007.13
2018-04-20T07:18:28.715Z,1007.13
2018-04-20T07:19:34.563Z,1007.11
2018-04-20T07:20:41.392Z,1007.12
2018-04-20T07:21:47.722Z,1007.10
2018-04-20T07:22:54.068Z,1007.08
2018-04-20T07:24:00.394Z,1007.11
2018-04-20T07:25:06.732Z,1007.08
2018-04-20T07:26:12.589Z,1007.05
2018-04-20T07:27:18.920Z,1007.03
2018-04-20T07:28:25.306Z,1007.03
2018-04-20T07:29:32.104Z,1007.03
2018-04-20T07:30:38.455Z,1007.00
2018-04-20T07:31:44.317Z,1007.04
2018-04-20T07:32:50.689Z,1006.95
2018-04-20T07:33:57.037Z,1006.95
2018-04-20T07:35:03.387Z,1006.93
2018-04-20T07:36:09.745Z,1006.96
2018-04-20T07:37:16.120Z,1006.93
2018-04-20T07:38:22.504Z,1006.95
2018-04-20T07:39:28.847Z,1006.94
2018-04-20T07:40:35.729Z,1006.91
2018-04-20T07:41:42.109Z,1006.93
2018-04-20T07:42:48.000Z,1006.94
2018-04-20T07:43:54.389Z,1006.93
2018-04-20T07:45:01.251Z,1006.91
2018-04-20T07:46:07.146Z,1006.94
2018-04-20T07:47:14.047Z,1006.91
2018-04-20T07:48:20.457Z,1006.90
2018-04-20T07:49:26.852Z,1006.89
2018-04-20T07:50:33.250Z,1006.87
2018-04-20T07:51:39.161Z,1006.91
2018-04-20T07:52:46.069Z,1006.91
2018-04-20T07:53:52.456Z,1006.86
2018-04-20T07:54:58.877Z,1006.90
2018-04-20T07:56:05.380Z,1006.88
2018-04-20T07:57:11.218Z,1006.85
2018-04-20T07:58:18.145Z,1006.84
2018-04-20T07:59:24.528Z,1006.84
2018-04-20T08:00:30.446Z,1006.83
2018-04-20T08:01:37.381Z,1006.84
2018-04-20T08:02:43.802Z,1006.86
2018-04-20T08:03:49.693Z,1006.85
2018-04-20T08:04:56.614Z,1006.87
2018-04-20T08:06:02.540Z,1006.83
2018-04-20T08:07:10.467Z,1006.85
2018-04-20T08:08:15.979Z,1006.82
2018-04-20T08:09:22.352Z,1006.87
2018-04-20T08:10:28.790Z,1006.84
2018-04-20T08:11:35.235Z,1006.84
2018-04-20T08:12:41.716Z,1006.84
2018-04-20T08:13:47.657Z,1006.84
2018-04-20T08:14:54.587Z,1006.82
2018-04-20T08:16:01.052Z,1006.82
2018-04-20T08:17:07.507Z,1006.77
2018-04-20T08:18:13.992Z,1006.77
2018-04-20T08:19:19.941Z,1006.77
2018-04-20T08:20:26.903Z,1006.76
2018-04-20T08:21:33.382Z,1006.73
2018-04-20T08:22:39.853Z,1006.74
2018-04-20T08:23:46.305Z,1006.71
2018-04-20T08:24:52.802Z,1006.74
2018-04-20T08:25:58.775Z,1006.75
2018-04-20T08:27:05.250Z,1006.76
2018-04-20T08:28:12.266Z,1006.75
2018-04-20T08:29:18.739Z,1006.75
2018-04-20T08:30:25.207Z,1006.73
2018-04-20T08:31:31.199Z,1006.74
2018-04-20T08:32:37.732Z,1006.73
2018-04-20T08:33:44.691Z,1006.70
2018-04-20T08:34:50.685Z,1006.72
2018-04-20T08:35:57.697Z,1006.68
2018-04-20T08:37:04.194Z,1006.72
2018-04-20T08:38:10.710Z,1006.73
2018-04-20T08:39:17.200Z,1006.71
2018-04-20T08:40:23.707Z,1006.71
2018-04-20T08:41:30.228Z,1006.70
2018-04-20T08:42:36.759Z,1006.71
2018-04-20T08:43:43.274Z,1006.69
2018-04-20T08:44:49.381Z,1006.69
2018-04-20T08:45:56.296Z,1006.70
2018-04-20T08:47:02.823Z,1006.67
2018-04-20T08:48:08.877Z,1006.70
2018-04-20T08:49:15.883Z,1006.71
2018-04-20T08:50:22.411Z,1006.66
2018-04-20T08:51:28.452Z,1006.68
2018-04-20T08:52:34.976Z,1006.69
2018-04-20T08:53:41.536Z,1006.66
2018-04-20T08:54:48.544Z,1006.67
2018-04-20T08:55:54.597Z,1006.65
2018-04-20T08:57:01.173Z,1006.68
2018-04-20T08:58:07.706Z,1006.68
2018-04-20T08:59:14.220Z,1006.69
2018-04-20T09:00:21.258Z,1006.63
2018-04-20T09:01:27.400Z,1006.64
2018-04-20T09:02:34.362Z,1006.65
2018-04-20T09:03:40.965Z,1006.69
2018-04-20T09:04:46.985Z,1006.70
2018-04-20T09:05:53.546Z,1006.67
2018-04-20T09:07:00.595Z,1006.65
2018-04-20T09:08:06.682Z,1006.63
2018-04-20T09:09:13.717Z,1006.62
2018-04-20T09:10:19.780Z,1006.61
2018-04-20T09:11:26.846Z,1006.60
2018-04-20T09:12:33.415Z,1006.60
2018-04-20T09:13:40.006Z,1006.62
2018-04-20T09:14:46.541Z,1006.63
2018-04-20T09:15:53.127Z,1006.56
2018-04-20T09:16:59.697Z,1006.57
2018-04-20T09:18:06.289Z,1006.59
2018-04-20T09:19:12.857Z,1006.54
2018-04-20T09:20:18.935Z,1006.52
2018-04-20T09:21:26.021Z,1006.48
2018-04-20T09:22:32.095Z,1006.44
2018-04-20T09:23:38.712Z,1006.48
2018-04-20T09:24:45.775Z,1006.46
2018-04-20T09:25:52.351Z,1006.47
2018-04-20T09:26:58.437Z,1006.47
2018-04-20T09:28:05.055Z,1006.45
2018-04-20T09:29:11.630Z,1006.40
2018-04-20T09:30:18.213Z,1006.39
2018-04-20T09:31:24.810Z,1006.37
2018-04-20T09:32:31.413Z,1006.35
2018-04-20T09:33:38.022Z,1006.34
2018-04-20T09:34:45.103Z,1006.36
2018-04-20T09:35:51.697Z,1006.32
2018-04-20T09:36:58.309Z,1006.31
2018-04-20T09:38:04.925Z,1006.31
2018-04-20T09:39:11.004Z,1006.30
2018-04-20T09:40:17.619Z,1006.36
2018-04-20T09:41:24.230Z,1006.30
2018-04-20T09:42:31.395Z,1006.29
2018-04-20T09:43:37.977Z,1006.28
2018-04-20T09:44:44.560Z,1006.27
2018-04-20T09:45:50.681Z,1006.31
2018-04-20T09:46:57.386Z,1006.29
2018-04-20T09:48:03.928Z,1006.29
2018-04-20T09:49:10.535Z,1006.29
2018-04-20T09:50:17.637Z,1006.29
2018-04-20T09:51:23.822Z,1006.28
2018-04-20T09:52:30.397Z,1006.27
2018-04-20T09:53:37.540Z,1006.29
2018-04-20T09:54:44.137Z,1006.27
2018-04-20T09:55:50.275Z,1006.27
2018-04-20T09:56:56.895Z,1006.27
2018-04-20T09:58:04.539Z,1006.30
2018-04-20T09:59:10.639Z,1006.29
2018-04-20T10:00:17.278Z,1006.29
2018-04-20T10:01:23.424Z,1006.25
2018-04-20T10:02:30.049Z,1006.27
2018-04-20T10:03:37.198Z,1006.27
2018-04-20T10:04:43.819Z,1006.27
2018-04-20T10:05:49.965Z,1006.27
2018-04-20T10:06:57.093Z,1006.26
2018-04-20T10:08:03.766Z,1006.21
2018-04-20T10:09:10.380Z,1006.20
2018-04-20T10:10:16.534Z,1006.20
2018-04-20T10:11:23.200Z,1006.17
2018-04-20T10:12:30.395Z,1006.19
2018-04-20T10:13:36.514Z,1006.20
2018-04-20T10:14:43.626Z,1006.18
2018-04-20T10:15:50.384Z,1006.20
2018-04-20T10:16:56.954Z,1006.18
2018-04-20T10:18:03.624Z,1006.17
2018-04-20T10:19:09.818Z,1006.16
2018-04-20T10:20:16.924Z,1006.12
2018-04-20T10:21:23.105Z,1006.11
2018-04-20T10:22:30.260Z,1006.12
2018-04-20T10:23:36.912Z,1006.08
2018-04-20T10:24:43.594Z,1006.12
2018-04-20T10:25:49.772Z,1006.12
2018-04-20T10:26:56.947Z,1006.06
2018-04-20T10:28:03.116Z,1006.09
2018-04-20T10:29:09.829Z,1006.07
2018-04-20T10:30:16.969Z,1006.06
2018-04-20T10:31:23.152Z,1006.05
2018-04-20T10:32:30.381Z,1005.99
2018-04-20T10:33:36.529Z,1005.99
2018-04-20T10:34:43.187Z,1006.01
2018-04-20T10:35:49.925Z,1005.97
2018-04-20T10:36:57.051Z,1005.99
2018-04-20T10:38:03.750Z,1005.96
2018-04-20T10:39:10.447Z,1005.94
2018-04-20T10:40:17.267Z,1005.88
2018-04-20T10:41:23.322Z,1005.90
2018-04-20T10:42:30.025Z,1005.95
2018-04-20T10:43:36.735Z,1005.86
2018-04-20T10:44:43.900Z,1005.86
2018-04-20T10:45:50.095Z,1005.85
2018-04-20T10:46:56.800Z,1005.87
2018-04-20T10:48:04.000Z,1005.83
2018-04-20T10:49:10.708Z,1005.85
2018-04-20T10:50:17.388Z,1005.82
2018-04-20T10:51:23.594Z,1005.86
2018-04-20T10:52:30.784Z,1005.80
2018-04-20T10:53:37.026Z,1005.80
2018-04-20T10:54:44.206Z,1005.80
2018-04-20T10:55:50.399Z,1005.83
2018-04-20T10:56:57.114Z,1005.76
2018-04-20T10:58:04.388Z,1005.71
2018-04-20T10:59:10.551Z,1005.73
2018-04-20T11:00:17.229Z,1005.67
2018-04-20T11:01:23.948Z,1005.68
2018-04-20T11:02:30.654Z,1005.65
2018-04-20T11:03:37.926Z,1005.63
2018-04-20T11:04:44.082Z,1005.64
2018-04-20T11:05:51.313Z,1005.62
2018-04-20T11:06:58.029Z,1005.58
2018-04-20T11:08:04.744Z,1005.62
2018-04-20T11:09:10.998Z,1005.59
2018-04-20T11:10:17.701Z,1005.56
2018-04-20T11:11:24.965Z,1005.49
2018-04-20T11:12:31.159Z,1005.52
2018-04-20T11:13:38.423Z,1005.51
2018-04-20T11:14:44.653Z,1005.50
2018-04-20T11:15:51.415Z,1005.51
2018-04-20T11:16:58.719Z,1005.49
2018-04-20T11:18:05.086Z,1005.50
2018-04-20T11:19:12.534Z,1005.52
2018-04-20T11:20:19.472Z,1005.47
2018-04-20T11:21:26.000Z,1005.48
2018-04-20T11:22:33.046Z,1005.45
2018-04-20T11:23:40.177Z,1005.44
2018-04-20T11:24:47.287Z,1005.41
2018-04-20T11:25:54.480Z,1005.43
2018-04-20T11:27:01.708Z,1005.40
2018-04-20T11:28:08.949Z,1005.37
2018-04-20T11:29:16.250Z,1005.32
2018-04-20T11:30:24.050Z,1005.35
2018-04-20T11:31:31.392Z,1005.33
2018-04-20T11:32:38.268Z,1005.33
2018-04-20T11:33:46.190Z,1005.36
2018-04-20T11:34:53.105Z,1005.34
2018-04-20T11:36:00.551Z,1005.27
2018-04-20T11:37:08.540Z,1005.32
2018-04-20T11:38:15.538Z,1005.33
2018-04-20T11:39:23.565Z,1005.31
2018-04-20T11:40:31.085Z,1005.31
2018-04-20T11:41:38.171Z,1005.32
2018-04-20T11:42:45.709Z,1005.32
2018-04-20T11:43:53.820Z,1005.23
2018-04-20T11:45:00.908Z,1005.27
2018-04-20T11:46:09.013Z,1005.22
2018-04-20T11:47:16.658Z,1005.24
2018-04-20T11:48:24.382Z,1005.22
2018-04-20T11:49:31.998Z,1005.25
2018-04-20T11:50:39.155Z,1005.17
2018-04-20T11:51:47.341Z,1005.20
2018-04-20T11:52:54.598Z,1005.15
2018-04-20T11:54:02.302Z,1005.14
2018-04-20T11:55:09.992Z,1005.16
2018-04-20T11:56:17.710Z,1005.12
2018-04-20T11:57:25.958Z,1005.11
2018-04-20T11:58:33.243Z,1005.11
2018-04-20T11:59:41.470Z,1005.13
2018-04-20T12:00:48.781Z,1005.09
2018-04-20T12:01:57.041Z,1005.08
2018-04-20T12:03:04.846Z,1005.02
2018-04-20T12:04:12.201Z,1005.05
2018-04-20T12:05:20.449Z,1005.03
2018-04-20T12:06:27.891Z,1004.97
2018-04-20T12:07:36.202Z,1005.05
2018-04-20T12:08:44.045Z,1005.03
2018-04-20T12:09:51.773Z,1005.00
2018-04-20T12:10:59.632Z,1004.99
2018-04-20T12:12:07.495Z,1005.00
2018-04-20T12:13:15.355Z,1004.96
2018-04-20T12:14:22.765Z,1004.95
2018-04-20T12:15:31.132Z,1004.93
2018-04-20T12:16:38.716Z,1004.91
2018-04-20T12:17:46.424Z,1004.90
2018-04-20T12:18:54.839Z,1004.88
2018-04-20T12:20:02.267Z,1004.93
2018-04-20T12:21:10.655Z,1004.89
2018-04-20T12:22:18.583Z,1004.86
2018-04-20T12:23:26.508Z,1004.81
2018-04-20T12:24:34.516Z,1004.82
2018-04-20T12:25:41.875Z,1004.83
2018-04-20T12:26:49.807Z,1004.79
2018-04-20T12:27:57.739Z,1004.77
2018-04-20T12:29:05.701Z,1004.74
2018-04-20T12:30:14.110Z,1004.74
2018-04-20T12:31:22.068Z,1004.74
2018-04-20T12:32:29.522Z,1004.72
2018-04-20T12:33:38.058Z,1004.71
2018-04-20T12:34:45.461Z,1004.69
2018-04-20T12:35:53.402Z,1004.69
2018-04-20T12:37:01.866Z,1004.68
2018-04-20T12:38:09.822Z,1004.65
2018-04-20T12:39:17.814Z,1004.64
2018-04-20T12:40:25.797Z,1004.61
2018-04-20T12:41:33.738Z,1004.59
2018-04-20T12:42:41.234Z,1004.60
2018-04-20T12:43:49.729Z,1004.59
2018-04-20T12:44:57.681Z,1004.54
2018-04-20T12:46:05.177Z,1004.55
2018-04-20T12:47:13.670Z,1004.52
2018-04-20T12:48:21.192Z,1004.45
2018-04-20T12:49:29.206Z,1004.46
2018-04-20T12:50:37.183Z,1004.41
2018-04-20T12:51:45.700Z,1004.44
2018-04-20T12:52:53.711Z,1004.44
2018-04-20T12:54:02.031Z,1004.40
2018-04-20T12:55:09.717Z,1004.40
2018-04-20T12:56:17.740Z,1004.35
2018-04-20T12:57:25.818Z,1004.38
2018-04-20T12:58:33.740Z,1004.40
2018-04-20T12:59:41.816Z,1004.34
2018-04-20T13:00:49.761Z,1004.37
2018-04-20T13:01:57.776Z,1004.31
2018-04-20T13:03:05.849Z,1004.30
2018-04-20T13:04:13.920Z,1004.29
2018-04-20T13:05:21.936Z,1004.27
2018-04-20T13:06:29.585Z,1004.26
2018-04-20T13:07:38.150Z,1004.25
2018-04-20T13:08:46.354Z,1004.23
2018-04-20T13:09:54.343Z,1004.24
2018-04-20T13:11:02.476Z,1004.14
2018-04-20T13:12:10.587Z,1004.13
2018-04-20T13:13:18.746Z,1004.12
2018-04-20T13:14:26.906Z,1004.14
2018-04-20T13:15:35.010Z,1004.16
2018-04-20T13:16:43.150Z,1004.11
2018-04-20T13:17:51.264Z,1004.14
2018-04-20T13:18:58.904Z,1004.10
2018-04-20T13:20:07.017Z,1004.09
2018-04-20T13:21:15.052Z,1004.07
2018-04-20T13:22:23.648Z,1004.06
2018-04-20T13:23:31.708Z,1004.02
2018-04-20T13:24:39.291Z,1004.00
2018-04-20T13:25:47.809Z,1004.00
2018-04-20T13:26:55.364Z,1003.99